Tubize, Belgium
Current Conditions -  °F | °C
As of 3:25 AM on Saturday 25 Oct 2014 (Local Time) from EBCV Reporting Station
Broken Clouds Broken Clouds  
Wind Chill: 54°   Ceiling: 1100
Heat Index: 54°   Visibility: 5mi
Dew Point: 52°   Wind: 12mph
Humidity: 94%   Direction: 210°SSW
Pressure: 30.03"   Gusts: NA
Location:  50.69°N, 4.2°E
Report Text: EBCV 250125Z AUTO 21010KT 8000 BKN011/// 12/11 Q1017 GRN
Loading
Personal Weather Stations






























Interactive Weather Map New forecast layout! Learn more

10-Day Weather Forecast

Advertisements
Track Severe Weather on mobile